Hlavní strana
METAR-TAF:

METAR-TAF

Letiště :

Salvador, Salvador

zeměpisná šířka: 13-26N, zeměpisná délka: 089-03W, výška: 25 m

Aktuální stav počasí

Zpráva byla vytvořena před 58 minutami, v 21:50 UTC
Severní vítr 10 kt s nárazy do 20 kt, proměnlivý mezi severoseverozápadním a severovýchodním
Teplota 32°C
Vlhkost vzduchu 41%
Tlak 1011 hPa
Viditelnost 10 km a více
Žádná oblačnost pod 1500 m, nevyskytují se cumulonimby.

METAR: MSLP 152150Z 36010G20KT 340V040 CAVOK 32/17 Q1010 A2984 NOSIG

Čas: 16:48 (22:48 UTC)

Předpověď počasí

Zpráva byla vytvořena před 7 hodinami a 23 minutami, v 15:25 UTC
Předpověď platná od 15 v 18 UTC do 16 v 18 UTC
Jižní vítr 7 kt
Viditelnost 10 km a více
Polojasno ve výšce 6000 ft
Od 16 v 0000 UTC
Severní vítr 15 kt s nárazy do 25 kt
Viditelnost 10 km a více
Žádná oblačnost pod 1500 m, nevyskytují se cumulonimby.

TAF: MSLP 151525Z 1518/1618 19007KT 9999 SCT060 TX34/1518Z TN20/1610Z FM160000 01015G25KT CAVOK

Stav a předpovědi počasí z více než 4 000 letišť (zprávy METAR a TAF).

Červené a žluté tečky na mapě představují dostupné meteorologické stanice.

Když kurzor umístíte na tečku, zobrazí se název stanice.

Pak kliknutím zobrazíte stav a předpověď počasí.

Chcete-li změnit mapu, kliknutím na zelené tlačítko se znaménkem +mapu přiblížíte, kliknutím na zelené tlačítko se znaménkem – mapu oddálíte a kliknutím na zelené šipky přejdete na sousední mapy.


METAR-TAF: